Latest Weather Observations for Cowra

IDN60801

Issued at 1:32 pm EST Tuesday 28 April 2015 (issued every 30 minutes, with the page automatically refreshed every 10 minutes)

About weather observations | Map of weather stations | Latest weather observations for NSW | Other Formats
Station Details ID: 065111 Name: COWRA AIRPORT AWS Lat: -33.84 Lon: 148.65 Height: 296.5 m
Data from the previous 72 hours. | See also: Recent months at Cowra
Date/Time
EST
Temp
°C
App
Temp
°C
Dew
Point
Rel
Hum
%
Delta-T
°C
Wind Press
QNH
hPa
Press
MSL
hPa
Rain
since 9 am
mm
Dir
 
Spd
km/h
Gust
km/h
Spd
kts
Gust
kts
28/01:30pm 17.0 14.7 5.6 47 5.6 SSW 7 13 4 7 1024.5 - 0.0
28/01:00pm 16.5 13.8 5.5 48 5.3 WSW 9 17 5 9 1024.9 - 0.0
28/12:30pm 16.3 14.2 5.9 50 5.1 W 6 11 3 6 1025.3 - 0.0
28/12:00pm 16.1 14.5 6.5 53 4.7 NE 4 9 2 5 1025.7 1025.6 0.0
28/11:30am 15.1 13.1 7.2 59 4.0 SSE 7 11 4 6 1026.1 - 0.0
28/11:00am 13.9 11.4 6.5 61 3.6 E 9 15 5 8 1026.4 - 0.0
28/10:30am 13.2 11.6 7.9 70 2.6 SE 6 11 3 6 1026.7 - 0.0
28/10:00am 11.6 9.2 7.1 74 2.2 S 9 13 5 7 1026.8 - 0.0
28/09:30am 10.3 7.9 6.8 79 1.7 SE 9 11 5 6 1026.9 - 0.0
28/09:00am 9.1 6.1 6.2 82 1.3 SE 11 15 6 8 1026.8 1026.6 0.0
28/08:30am 7.8 4.8 5.8 87 0.9 SE 11 15 6 8 1026.9 - 0.0
28/08:00am 6.2 4.0 5.5 95 0.3 S 6 7 3 4 1026.5 - 0.0
28/07:30am 4.8 3.6 4.5 98 0.1 CALM 0 0 0 0 1026.2 - 0.0
28/07:00am 3.1 0.7 2.4 95 0.3 SE 4 7 2 4 1025.9 - 0.0
28/06:30am 4.2 1.7 3.6 96 0.3 SE 6 7 3 4 1025.4 - 0.0
28/06:00am 3.6 2.1 3.0 96 0.2 CALM 0 0 0 0 1025.0 1024.7 0.0
28/05:30am 3.7 1.1 3.0 95 0.3 SSE 6 7 3 4 1024.8 - 0.0
28/05:00am 3.0 1.3 1.8 92 0.5 CALM 0 0 0 0 1024.6 - 0.0
28/04:30am 4.3 3.0 3.9 97 0.2 CALM 0 0 0 0 1024.3 - 0.0
28/04:00am 4.2 2.8 3.5 95 0.3 CALM 0 0 0 0 1024.0 - 0.0
28/03:30am 4.4 3.0 3.5 94 0.4 CALM 0 0 0 0 1023.8 - 0.0
28/03:00am 4.7 3.0 4.0 95 0.3 ESE 2 7 1 4 1023.7 1023.5 0.0
28/02:30am 4.9 3.3 4.3 96 0.3 SE 2 9 1 5 1023.7 - 0.0
28/02:00am 5.1 3.9 4.5 96 0.3 CALM 0 0 0 0 1023.7 - 0.0
28/01:30am 5.4 4.3 5.3 99 0.0 CALM 0 0 0 0 1023.7 - 0.0
28/01:00am 5.2 4.0 4.5 95 0.3 CALM 0 0 0 0 1023.8 - 0.0
28/12:30am 5.3 3.3 4.4 94 0.4 SW 4 11 2 6 1023.9 - 0.0
28/12:00am 6.0 4.8 4.5 90 0.7 CALM 0 0 0 0 1023.8 1023.6 0.0
 
Date/Time
EST
Temp
°C
App
Temp
°C
Dew
Point
Rel
Hum
%
Delta-T
°C
Wind Press
QNH
hPa
Press
MSL
hPa
Rain
since 9 am
mm
Dir
 
Spd
km/h
Gust
km/h
Spd
kts
Gust
kts
27/11:30pm 6.1 4.9 4.6 90 0.7 CALM 0 0 0 0 1023.8 - 0.0
27/11:00pm 5.8 4.4 3.8 87 0.9 CALM 0 0 0 0 1023.8 - 0.0
27/10:30pm 6.4 5.0 3.7 83 1.2 CALM 0 0 0 0 1023.9 - 0.0
27/10:00pm 8.3 7.2 5.1 80 1.5 CALM 0 0 0 0 1023.8 - 0.0
27/09:30pm 8.7 7.7 5.6 81 1.4 CALM 0 0 0 0 1023.7 - 0.0
27/09:00pm 8.9 7.9 5.5 79 1.6 CALM 0 0 0 0 1023.6 1023.4 0.0
27/08:30pm 9.4 8.1 5.8 78 1.7 SW 2 6 1 3 1023.5 - 0.0
27/08:00pm 9.5 6.9 6.0 79 1.6 SW 9 13 5 7 1023.3 - 0.0
27/07:30pm 10.4 7.0 6.0 74 2.1 SW 13 15 7 8 1022.8 - 0.0
27/07:00pm 10.7 8.4 5.9 72 2.3 SW 7 9 4 5 1022.5 - 0.0
27/06:30pm 10.8 8.1 5.8 71 2.4 WSW 9 9 5 5 1022.1 - 0.0
27/06:00pm 11.3 8.6 5.6 68 2.7 WSW 9 11 5 6 1021.8 1021.6 0.0
27/05:30pm 12.3 9.1 5.2 62 3.3 WSW 11 15 6 8 1021.5 - 0.0
27/05:00pm 14.2 10.8 6.1 58 3.9 WSW 13 17 7 9 1021.2 - 0.0
27/04:30pm 14.8 10.5 5.3 53 4.6 W 17 22 9 12 1021.0 - 0.0
27/04:00pm 16.1 12.6 5.4 49 5.2 W 13 19 7 10 1020.9 - 0.0
27/03:30pm 15.6 12.4 5.2 50 5.0 WSW 11 17 6 9 1020.8 - 0.0
27/03:00pm 14.7 11.5 5.2 53 4.5 SW 11 15 6 8 1020.8 1020.6 0.0
27/02:30pm 14.3 11.2 5.7 56 4.1 SW 11 15 6 8 1020.7 - 0.0
27/02:00pm 14.8 12.1 5.6 54 4.4 SSW 9 15 5 8 1020.7 - 0.0
27/01:30pm 14.7 11.7 5.8 55 4.3 WSW 11 17 6 9 1020.8 - 0.0
27/01:00pm 14.1 12.1 7.2 63 3.4 WNW 7 11 4 6 1021.1 - 0.0
27/12:30pm 14.2 12.4 7.9 66 3.2 N 7 13 4 7 1021.3 - 0.0
27/12:00pm 13.2 10.9 7.6 69 2.8 NNW 9 15 5 8 1021.7 1021.5 0.0
27/11:30am 12.0 9.9 6.7 70 2.6 N 7 13 4 7 1022.0 - 0.0
27/11:00am 10.7 8.6 6.5 75 2.0 SW 7 13 4 7 1022.2 - 0.0
27/10:30am 9.9 7.7 6.1 77 1.8 SSW 7 13 4 7 1022.3 - 0.0
27/10:00am 9.9 7.7 6.2 78 1.7 SW 7 11 4 6 1022.2 - 0.0
27/09:30am 9.3 8.0 6.2 81 1.5 SSW 2 9 1 5 1022.0 - 0.0
27/09:00am 8.9 7.1 5.5 79 1.6 SSW 4 7 2 4 1021.8 1021.5 0.0
27/08:30am 8.9 6.8 5.6 80 1.5 SSW 6 9 3 5 1021.6 - 0.0
27/08:00am 8.4 7.3 5.2 80 1.5 CALM 0 0 0 0 1021.5 - 0.0
27/07:30am 8.0 7.1 6.0 87 0.9 CALM 0 0 0 0 1021.1 - 0.0
27/07:00am 6.5 5.2 4.3 86 1.0 CALM 0 6 0 3 1020.8 - 0.0
27/06:30am 7.4 4.7 5.5 88 0.9 WSW 9 11 5 6 1020.4 - 0.0
27/06:00am 7.6 4.9 5.4 86 1.0 WSW 9 11 5 6 1020.2 1019.9 0.0
27/05:30am 7.3 3.7 4.8 84 1.1 W 13 15 7 8 1019.8 - 0.0
27/05:00am 7.2 4.6 4.2 81 1.3 W 7 11 4 6 1019.6 - 0.0
27/04:30am 7.3 4.0 4.3 81 1.3 W 11 15 6 8 1019.3 - 0.0
27/04:00am 7.3 4.3 4.3 81 1.3 W 9 15 5 8 1019.0 - 0.0
27/03:30am 7.5 4.2 4.3 80 1.4 WNW 11 13 6 7 1018.9 - 0.0
27/03:00am 7.4 4.4 4.2 80 1.4 W 9 13 5 7 1018.8 1018.6 0.0
27/02:30am 7.5 4.9 4.3 80 1.4 WNW 7 13 4 7 1018.9 - 0.0
27/02:00am 8.8 6.3 4.6 75 1.9 WSW 7 13 4 7 1018.9 - 0.0
27/01:30am 9.1 6.3 5.1 76 1.8 W 9 13 5 7 1019.0 - 0.0
27/01:00am 9.1 6.9 5.1 76 1.8 W 6 11 3 6 1018.9 - 0.0
27/12:30am 9.9 7.6 5.9 76 1.9 SW 7 13 4 7 1018.9 - 0.0
27/12:00am 9.9 7.3 5.9 76 1.9 W 9 15 5 8 1019.0 1018.8 0.0
 
Date/Time
EST
Temp
°C
App
Temp
°C
Dew
Point
Rel
Hum
%
Delta-T
°C
Wind Press
QNH
hPa
Press
MSL
hPa
Rain
since 9 am
mm
Dir
 
Spd
km/h
Gust
km/h
Spd
kts
Gust
kts
26/11:30pm 10.5 7.5 6.1 74 2.1 W 11 17 6 9 1019.1 - 0.0
26/11:00pm 10.6 6.9 6.2 74 2.1 WSW 15 24 8 13 1019.1 - 0.0
26/10:30pm 11.2 7.2 6.7 74 2.2 SW 17 26 9 14 1019.1 - 0.0
26/10:00pm 11.9 7.0 7.0 72 2.4 WSW 22 30 12 16 1019.0 - 0.0
26/09:30pm 12.0 8.9 7.3 73 2.3 W 13 22 7 12 1018.8 - 0.0
26/09:00pm 12.3 7.5 7.2 71 2.5 WSW 22 30 12 16 1018.5 1018.3 0.0
26/08:30pm 12.7 8.3 7.6 71 2.5 W 20 28 11 15 1018.2 - 0.0
26/08:00pm 12.2 8.5 7.9 75 2.1 WSW 17 22 9 12 1018.0 - 0.0
26/07:30pm 12.4 9.4 7.9 74 2.2 W 13 17 7 9 1017.7 - 0.0
26/07:00pm 13.1 9.8 8.2 72 2.5 W 15 19 8 10 1017.6 - 0.0
26/06:30pm 14.1 10.1 8.3 68 2.9 W 19 26 10 14 1017.1 - 0.0
26/06:00pm 14.6 11.6 9.2 70 2.8 W 15 19 8 10 1016.6 1016.3 0.0
26/05:30pm 14.9 11.9 9.3 69 2.9 W 15 19 8 10 1016.4 - 0.0
26/05:00pm 15.7 12.0 9.4 66 3.3 W 19 26 10 14 1016.0 - 0.0
26/04:30pm 15.4 12.1 9.7 69 3.0 WSW 17 24 9 13 1015.8 - 0.0
26/04:00pm 16.7 13.2 10.1 65 3.5 W 19 28 10 15 1015.6 - 0.0
26/03:30pm 15.2 10.5 9.3 68 3.1 W 24 32 13 17 1015.4 - 0.0
26/03:00pm 15.6 11.9 10.2 70 2.9 W 20 30 11 16 1015.0 1014.7 0.0
26/02:30pm 15.0 10.4 9.8 71 2.7 WSW 24 30 13 16 1014.6 - 0.0
26/02:00pm 15.6 11.6 10.6 72 2.7 WSW 22 30 12 16 1014.3 - 0.0
26/01:30pm 14.6 11.0 10.0 74 2.4 WSW 19 26 10 14 1014.3 - 0.0
26/01:00pm 14.1 11.2 9.7 75 2.3 WSW 15 20 8 11 1014.2 - 0.0
26/12:30pm 13.7 10.1 9.7 77 2.1 WSW 19 24 10 13 1014.3 - 0.0
26/12:00pm 12.8 9.2 9.8 82 1.6 WSW 19 26 10 14 1014.4 1014.2 0.0
26/11:30am 12.8 9.6 9.8 82 1.6 WSW 17 24 9 13 1014.5 - 0.0
26/11:00am 12.0 8.7 9.6 85 1.2 W 17 20 9 11 1014.5 - 0.0
26/10:30am 11.4 8.0 9.3 87 1.1 W 17 24 9 13 1014.3 - 0.0
26/10:00am 11.6 7.8 9.0 84 1.3 WSW 19 24 10 13 1014.3 - 0.0
26/09:30am 11.3 7.6 9.4 88 1.0 WSW 19 22 10 12 1014.2 - 0.0
26/09:00am 11.2 8.3 9.6 90 0.8 W 15 24 8 13 1013.8 1013.5 13.2
26/08:30am 10.9 8.0 9.8 93 0.6 W 15 22 8 12 1013.6 - 13.2
26/08:00am 10.8 7.5 9.6 92 0.6 W 17 22 9 12 1013.2 - 13.2
26/07:30am 10.5 7.9 9.4 93 0.6 W 13 19 7 10 1012.7 - 13.2
26/07:00am 10.4 7.4 9.3 93 0.6 W 15 20 8 11 1012.3 - 13.2
26/06:30am 10.4 7.8 9.2 92 0.6 W 13 17 7 9 1011.9 - 13.2
26/06:00am 10.7 7.3 9.1 90 0.8 WSW 17 26 9 14 1011.7 1011.5 13.2
26/05:30am 10.7 7.3 9.1 90 0.8 SW 17 26 9 14 1011.5 - 13.2
26/05:00am 10.9 7.0 8.8 87 1.1 SW 19 24 10 13 1011.2 - 13.2
26/04:30am 11.0 7.2 9.1 88 1.0 SW 19 20 10 11 1010.9 - 13.2
26/04:00am 10.3 8.9 9.5 95 0.4 NNW 7 9 4 5 1010.6 - 13.2
26/03:30am 10.1 8.7 9.5 96 0.3 NNW 7 13 4 7 1010.3 - 13.2
26/03:00am 10.2 8.4 9.6 96 0.3 NW 9 11 5 6 1010.2 1009.9 13.2
26/02:30am 9.8 8.3 9.3 97 0.3 N 7 11 4 6 1010.3 - 13.2
26/02:00am 9.6 7.3 9.1 97 0.3 N 11 13 6 7 1010.4 - 13.0
26/01:30am 9.5 6.8 9.0 97 0.2 N 13 19 7 10 1010.5 - 13.0
26/01:00am 9.5 6.1 9.0 97 0.2 N 17 22 9 12 1010.5 - 13.0
26/12:30am 9.5 6.1 9.0 97 0.2 NNW 17 22 9 12 1010.5 - 13.0
26/12:00am 9.4 6.4 9.1 98 0.2 NNW 15 17 8 9 1010.6 1010.4 12.6
 
Date/Time
EST
Temp
°C
App
Temp
°C
Dew
Point
Rel
Hum
%
Delta-T
°C
Wind Press
QNH
hPa
Press
MSL
hPa
Rain
since 9 am
mm
Dir
 
Spd
km/h
Gust
km/h
Spd
kts
Gust
kts
25/11:30pm 9.5 5.1 9.0 97 0.2 NNW 22 28 12 15 1010.6 - 11.2
25/11:00pm 10.0 5.7 9.4 96 0.3 NNW 22 30 12 16 1010.8 - 9.6
25/10:30pm 10.6 5.6 9.4 92 0.6 NNW 26 35 14 19 1010.6 - 6.8
25/10:00pm 12.1 11.6 10.8 92 0.7 SSE 4 9 2 5 1010.3 - 5.0
25/09:30pm 11.9 10.2 11.3 96 0.3 WSW 11 17 6 9 1010.1 - 4.6
25/09:00pm 12.1 10.3 10.8 92 0.7 SSE 11 15 6 8 1009.6 1009.3 4.6
25/08:30pm 12.1 8.7 10.5 90 0.8 SSW 19 24 10 13 1009.6 - 4.4
25/08:00pm 12.4 8.4 10.5 88 1.0 S 22 28 12 15 1008.9 - 4.2
25/07:30pm 12.6 10.2 11.3 92 0.7 SSW 15 19 8 10 1009.0 - 4.0
25/07:00pm 12.8 9.2 10.7 87 1.1 SW 20 32 11 17 1008.5 - 3.2
25/06:30pm 13.8 10.1 10.2 79 1.9 SW 20 30 11 16 1007.8 - 1.4
25/06:00pm 15.7 13.0 9.1 65 3.5 SSW 13 17 7 9 1006.3 1006.0 0.2
25/05:30pm 16.3 13.4 9.5 64 3.6 SW 15 20 8 11 1006.6 - 0.2
25/05:00pm 16.6 13.1 8.8 60 4.1 W 17 20 9 11 1006.4 - 0.2
25/04:30pm 17.4 13.8 8.3 55 4.7 WNW 17 24 9 13 1005.8 - 0.2
25/04:00pm 19.0 15.1 9.5 54 5.1 WNW 20 30 11 16 1005.8 - 0.2
25/03:30pm 19.7 15.9 11.2 58 4.7 W 22 32 12 17 1005.7 - 0.2
25/03:00pm 19.9 15.0 10.0 53 5.4 W 26 37 14 20 1005.6 1005.1 0.2
25/02:30pm 20.4 15.4 11.1 55 5.2 W 28 35 15 19 1005.1 - 0.2
25/02:00pm 21.2 16.4 10.4 50 6.0 WNW 26 35 14 19 1004.7 - 0.0

Other Formats:

Comma delimited format used in spreadsheet applications
http://www.bom.gov.au/fwo/IDN60801/IDN60801.95721.axf

JavaScript Object Notation format (JSON) in row-major order
http://www.bom.gov.au/fwo/IDN60801/IDN60801.95721.json